createdAt,value
2022-12-25T00:00:07.451Z,6.70
2022-12-25T00:00:20.884Z,6.60
2022-12-25T00:00:27.424Z,6.70
2022-12-25T00:00:37.408Z,6.60
2022-12-25T00:00:47.485Z,6.30
2022-12-25T00:00:58.307Z,6.30
2022-12-25T00:01:07.467Z,6.40
2022-12-25T00:01:17.472Z,6.80
2022-12-25T00:01:27.345Z,7.00
2022-12-25T00:01:37.342Z,7.00
2022-12-25T00:01:47.344Z,7.20
2022-12-25T00:01:58.233Z,6.80
2022-12-25T00:02:07.343Z,7.40
2022-12-25T00:02:17.389Z,7.10
2022-12-25T00:02:27.473Z,7.20
2022-12-25T00:02:37.479Z,5.90
2022-12-25T00:02:47.438Z,5.10
2022-12-25T00:02:57.435Z,4.50
2022-12-25T00:03:07.528Z,4.90
2022-12-25T00:03:17.467Z,5.20
2022-12-25T00:03:27.492Z,5.00
2022-12-25T00:03:37.543Z,4.40
2022-12-25T00:03:47.507Z,4.50
2022-12-25T00:03:57.581Z,4.90
2022-12-25T00:04:07.544Z,6.30
2022-12-25T00:04:17.326Z,6.50
2022-12-25T00:04:27.390Z,7.20
2022-12-25T00:04:37.325Z,6.40
2022-12-25T00:04:47.325Z,6.70
2022-12-25T00:04:57.321Z,6.10
2022-12-25T00:05:07.335Z,6.60
2022-12-25T00:05:17.316Z,6.30
2022-12-25T00:05:28.224Z,6.80
2022-12-25T00:05:37.331Z,6.40
2022-12-25T00:05:47.317Z,6.60
2022-12-25T00:05:57.332Z,6.40
2022-12-25T00:06:07.344Z,6.90
2022-12-25T00:06:17.328Z,7.40
2022-12-25T00:06:27.329Z,7.60
2022-12-25T00:06:38.223Z,7.40
2022-12-25T00:06:47.310Z,6.80
2022-12-25T00:06:57.308Z,7.70
2022-12-25T00:07:07.307Z,7.30
2022-12-25T00:07:17.315Z,7.00
2022-12-25T00:07:27.318Z,6.00
2022-12-25T00:07:37.309Z,6.70
2022-12-25T00:07:47.326Z,6.40
2022-12-25T00:07:57.312Z,6.80
2022-12-25T00:08:07.315Z,7.30
2022-12-25T00:08:17.402Z,8.40
2022-12-25T00:08:27.308Z,8.00
2022-12-25T00:08:37.344Z,8.00
2022-12-25T00:08:47.301Z,7.60
2022-12-25T00:08:57.316Z,7.20
2022-12-25T00:09:08.224Z,6.60
2022-12-25T00:09:17.322Z,6.10
2022-12-25T00:09:27.302Z,5.70
2022-12-25T00:09:37.319Z,5.30
2022-12-25T00:09:48.259Z,5.70
2022-12-25T00:09:57.297Z,5.60
2022-12-25T00:10:07.393Z,6.70
2022-12-25T00:10:17.301Z,6.00
2022-12-25T00:10:27.300Z,6.10
2022-12-25T00:10:43.015Z,5.20
2022-12-25T00:10:47.315Z,5.70
2022-12-25T00:10:57.306Z,6.10
2022-12-25T00:11:07.407Z,6.40
2022-12-25T00:11:17.310Z,6.60
2022-12-25T00:11:28.233Z,7.00
2022-12-25T00:11:37.308Z,7.00
2022-12-25T00:11:47.291Z,7.10
2022-12-25T00:11:58.237Z,7.00
2022-12-25T00:12:07.290Z,7.30
2022-12-25T00:12:17.300Z,7.10
2022-12-25T00:12:28.234Z,6.90
2022-12-25T00:12:37.289Z,6.80
2022-12-25T00:12:47.310Z,6.80
2022-12-25T00:12:57.298Z,7.00
2022-12-25T00:13:07.284Z,6.50
2022-12-25T00:13:17.289Z,7.00
2022-12-25T00:13:27.338Z,7.10
2022-12-25T00:13:37.293Z,7.60
2022-12-25T00:13:47.316Z,6.80
2022-12-25T00:13:57.293Z,6.20
2022-12-25T00:14:07.287Z,6.10
2022-12-25T00:14:17.295Z,6.70
2022-12-25T00:14:27.286Z,6.90
2022-12-25T00:14:37.280Z,7.10
2022-12-25T00:14:47.291Z,7.20
2022-12-25T00:14:57.292Z,7.80
2022-12-25T00:15:07.279Z,7.40
2022-12-25T00:15:17.337Z,7.20
2022-12-25T00:15:27.296Z,6.50
2022-12-25T00:15:37.276Z,6.30
2022-12-25T00:15:47.320Z,6.30
2022-12-25T00:15:57.309Z,6.40
2022-12-25T00:16:07.320Z,7.40
2022-12-25T00:16:17.326Z,7.60
2022-12-25T00:16:27.413Z,7.40
2022-12-25T00:16:38.389Z,7.20
2022-12-25T00:16:47.359Z,7.30
2022-12-25T00:16:57.278Z,7.00
2022-12-25T00:17:07.276Z,6.20
2022-12-25T00:17:17.291Z,5.30
2022-12-25T00:17:27.270Z,5.10
2022-12-25T00:17:37.300Z,5.10
2022-12-25T00:17:47.290Z,5.20
2022-12-25T00:17:57.274Z,5.00
2022-12-25T00:18:07.371Z,4.50
2022-12-25T00:18:17.290Z,4.50
2022-12-25T00:18:27.268Z,5.20
2022-12-25T00:18:37.324Z,6.00
2022-12-25T00:18:47.270Z,6.40
2022-12-25T00:18:57.339Z,6.10
2022-12-25T00:19:07.263Z,6.00
2022-12-25T00:19:17.267Z,6.60
2022-12-25T00:19:28.289Z,6.60
2022-12-25T00:19:37.338Z,7.40
2022-12-25T00:19:47.268Z,6.80
2022-12-25T00:19:57.256Z,6.80
2022-12-25T00:20:07.434Z,6.50
2022-12-25T00:20:18.542Z,6.10
2022-12-25T00:20:27.250Z,6.50
2022-12-25T00:20:37.249Z,6.10
2022-12-25T00:20:47.267Z,6.90
2022-12-25T00:20:57.245Z,6.60
2022-12-25T00:21:07.256Z,6.40
2022-12-25T00:21:17.262Z,6.10
2022-12-25T00:21:27.253Z,6.10
2022-12-25T00:21:37.339Z,7.20
2022-12-25T00:21:48.237Z,7.50
2022-12-25T00:21:57.246Z,7.80
2022-12-25T00:22:07.247Z,7.30
2022-12-25T00:22:17.317Z,7.60
2022-12-25T00:22:27.250Z,7.70
2022-12-25T00:22:37.254Z,6.60
2022-12-25T00:22:47.266Z,6.10
2022-12-25T00:22:57.254Z,6.30
2022-12-25T00:23:07.280Z,6.70
2022-12-25T00:23:17.242Z,6.10
2022-12-25T00:23:28.263Z,5.90
2022-12-25T00:23:40.285Z,6.60
2022-12-25T00:23:47.287Z,6.80
2022-12-25T00:23:57.238Z,6.20
2022-12-25T00:24:07.235Z,5.20
2022-12-25T00:24:17.240Z,5.10
2022-12-25T00:24:27.237Z,5.20
2022-12-25T00:24:37.327Z,4.80
2022-12-25T00:24:47.247Z,4.90
2022-12-25T00:24:57.269Z,5.60
2022-12-25T00:25:08.240Z,6.30
2022-12-25T00:25:17.235Z,6.50
2022-12-25T00:25:27.231Z,6.60
2022-12-25T00:25:37.235Z,7.40
2022-12-25T00:25:47.255Z,7.00
2022-12-25T00:25:57.241Z,6.60
2022-12-25T00:26:07.224Z,6.10
2022-12-25T00:26:17.263Z,6.80
2022-12-25T00:26:28.268Z,6.70
2022-12-25T00:26:37.230Z,6.20
2022-12-25T00:26:47.242Z,6.60
2022-12-25T00:26:57.241Z,6.70
2022-12-25T00:27:07.238Z,6.70
2022-12-25T00:27:17.250Z,5.80
2022-12-25T00:27:27.220Z,6.20
2022-12-25T00:27:37.223Z,6.30
2022-12-25T00:27:47.247Z,6.90
2022-12-25T00:27:57.217Z,6.20
2022-12-25T00:28:07.224Z,6.50
2022-12-25T00:28:17.231Z,6.10
2022-12-25T00:28:27.219Z,6.50
2022-12-25T00:28:37.250Z,6.30
2022-12-25T00:28:47.234Z,6.70
2022-12-25T00:28:57.269Z,6.60
2022-12-25T00:29:07.231Z,6.60
2022-12-25T00:29:17.733Z,6.00
2022-12-25T00:29:27.212Z,6.00
2022-12-25T00:29:37.225Z,6.50
2022-12-25T00:29:47.216Z,7.30
2022-12-25T00:29:57.214Z,7.70
2022-12-25T00:30:07.217Z,7.40
2022-12-25T00:30:17.217Z,7.20
2022-12-25T00:30:27.217Z,6.80
2022-12-25T00:30:37.759Z,6.70
2022-12-25T00:30:47.211Z,7.20
2022-12-25T00:30:57.309Z,7.00
2022-12-25T00:31:07.299Z,6.80
2022-12-25T00:31:17.279Z,5.80
2022-12-25T00:31:27.865Z,5.00
2022-12-25T00:31:37.295Z,4.80
2022-12-25T00:31:47.262Z,4.90
2022-12-25T00:31:57.308Z,5.00
2022-12-25T00:32:07.203Z,4.80
2022-12-25T00:32:17.219Z,4.30
2022-12-25T00:32:27.204Z,5.20
2022-12-25T00:32:37.205Z,5.80
2022-12-25T00:32:47.197Z,6.20
2022-12-25T00:32:57.734Z,6.10
2022-12-25T00:33:07.209Z,6.20
2022-12-25T00:33:17.199Z,7.50
2022-12-25T00:33:27.754Z,7.40
2022-12-25T00:33:37.214Z,7.40
2022-12-25T00:33:47.200Z,6.40
2022-12-25T00:33:57.234Z,7.10
2022-12-25T00:34:07.269Z,7.10
2022-12-25T00:34:17.199Z,7.10
2022-12-25T00:34:27.196Z,6.30
2022-12-25T00:34:37.190Z,5.80
2022-12-25T00:34:47.228Z,5.70
2022-12-25T00:34:57.192Z,5.70
2022-12-25T00:35:07.200Z,5.80
2022-12-25T00:35:17.194Z,5.70
2022-12-25T00:35:27.194Z,6.00
2022-12-25T00:35:37.244Z,6.20
2022-12-25T00:35:47.199Z,6.70
2022-12-25T00:35:57.203Z,6.50
2022-12-25T00:36:07.191Z,7.10
2022-12-25T00:36:17.268Z,6.40
2022-12-25T00:36:27.199Z,6.80
2022-12-25T00:36:41.629Z,6.80
2022-12-25T00:36:47.189Z,6.90
2022-12-25T00:36:57.186Z,6.60
2022-12-25T00:37:07.180Z,6.20
2022-12-25T00:37:17.287Z,6.70
2022-12-25T00:37:27.178Z,7.30
2022-12-25T00:37:37.725Z,7.40
2022-12-25T00:37:47.736Z,6.90
2022-12-25T00:37:57.174Z,6.30
2022-12-25T00:38:07.175Z,6.10
2022-12-25T00:38:17.216Z,5.60
2022-12-25T00:38:27.188Z,5.20
2022-12-25T00:38:37.209Z,5.10
2022-12-25T00:38:47.177Z,5.20
2022-12-25T00:38:57.197Z,5.00
2022-12-25T00:39:07.209Z,5.10
2022-12-25T00:39:17.219Z,6.40
2022-12-25T00:39:27.176Z,7.00
2022-12-25T00:39:37.189Z,7.40
2022-12-25T00:39:47.179Z,6.70
2022-12-25T00:39:57.182Z,7.10
2022-12-25T00:40:07.185Z,7.10
2022-12-25T00:40:17.176Z,6.90
2022-12-25T00:40:29.730Z,7.10
2022-12-25T00:40:37.178Z,6.50
2022-12-25T00:40:47.172Z,7.00
2022-12-25T00:40:57.283Z,6.30
2022-12-25T00:41:07.169Z,6.20
2022-12-25T00:41:17.170Z,6.50
2022-12-25T00:41:27.724Z,6.80
2022-12-25T00:41:37.167Z,6.80
2022-12-25T00:41:47.260Z,6.20
2022-12-25T00:41:57.218Z,6.50
2022-12-25T00:42:07.167Z,6.90
2022-12-25T00:42:17.160Z,7.10
2022-12-25T00:42:27.727Z,6.90
2022-12-25T00:42:37.186Z,6.40
2022-12-25T00:42:47.167Z,6.40
2022-12-25T00:42:57.204Z,6.50
2022-12-25T00:43:07.157Z,7.20
2022-12-25T00:43:17.255Z,7.10
2022-12-25T00:43:27.151Z,6.70
2022-12-25T00:43:37.155Z,6.30
2022-12-25T00:43:47.176Z,6.20
2022-12-25T00:43:57.164Z,6.70
2022-12-25T00:44:07.161Z,6.60
2022-12-25T00:44:17.161Z,7.00
2022-12-25T00:44:27.229Z,7.60
2022-12-25T00:44:37.735Z,7.40
2022-12-25T00:44:47.145Z,6.20
2022-12-25T00:44:57.168Z,4.90
2022-12-25T00:45:07.154Z,4.60
2022-12-25T00:45:17.150Z,4.60
2022-12-25T00:45:27.212Z,4.60
2022-12-25T00:45:37.228Z,4.30
2022-12-25T00:45:47.266Z,4.40
2022-12-25T00:45:57.810Z,4.90
2022-12-25T00:46:07.241Z,5.60
2022-12-25T00:46:17.264Z,6.30
2022-12-25T00:46:27.252Z,7.20
2022-12-25T00:46:37.411Z,7.10
2022-12-25T00:46:47.197Z,6.80
2022-12-25T00:46:57.246Z,5.40
2022-12-25T00:47:07.251Z,5.50
2022-12-25T00:47:17.218Z,5.90
2022-12-25T00:47:27.280Z,6.40
2022-12-25T00:47:37.140Z,6.30
2022-12-25T00:47:47.136Z,6.10
2022-12-25T00:47:57.206Z,6.60
2022-12-25T00:48:07.130Z,6.90
2022-12-25T00:48:17.167Z,7.20
2022-12-25T00:48:27.135Z,6.80
2022-12-25T00:48:37.134Z,6.80
2022-12-25T00:48:47.156Z,7.50
2022-12-25T00:48:57.165Z,7.10
2022-12-25T00:49:07.248Z,6.70
2022-12-25T00:49:17.131Z,6.00
2022-12-25T00:49:27.132Z,6.20
2022-12-25T00:49:37.285Z,7.00
2022-12-25T00:49:47.148Z,7.10
2022-12-25T00:49:57.153Z,7.30
2022-12-25T00:50:07.229Z,6.70
2022-12-25T00:50:17.723Z,6.80
2022-12-25T00:50:27.122Z,7.50
2022-12-25T00:50:37.134Z,7.90
2022-12-25T00:50:47.128Z,7.90
2022-12-25T00:50:57.172Z,6.70
2022-12-25T00:51:07.162Z,5.60
2022-12-25T00:51:17.131Z,4.90
2022-12-25T00:51:27.121Z,4.70
2022-12-25T00:51:37.754Z,5.40
2022-12-25T00:51:47.125Z,5.50
2022-12-25T00:51:57.159Z,6.10
2022-12-25T00:52:07.124Z,6.40
2022-12-25T00:52:17.125Z,6.90
2022-12-25T00:52:27.134Z,7.20
2022-12-25T00:52:37.132Z,6.70
2022-12-25T00:52:47.122Z,6.90
2022-12-25T00:52:57.778Z,6.40
2022-12-25T00:53:07.120Z,6.30
2022-12-25T00:53:17.130Z,6.30
2022-12-25T00:53:27.121Z,6.50
2022-12-25T00:53:37.168Z,7.20
2022-12-25T00:53:47.135Z,7.60
2022-12-25T00:53:57.726Z,7.40
2022-12-25T00:54:07.202Z,7.30
2022-12-25T00:54:17.137Z,6.80
2022-12-25T00:54:27.190Z,7.00
2022-12-25T00:54:37.115Z,6.50
2022-12-25T00:54:47.188Z,6.90
2022-12-25T00:54:57.148Z,7.10
2022-12-25T00:55:07.112Z,7.50
2022-12-25T00:55:17.125Z,7.50
2022-12-25T00:55:27.102Z,7.40
2022-12-25T00:55:37.103Z,7.30
2022-12-25T00:55:49.722Z,7.90
2022-12-25T00:55:57.104Z,8.10
2022-12-25T00:56:07.111Z,8.20
2022-12-25T00:56:17.107Z,7.30
2022-12-25T00:56:27.145Z,7.10
2022-12-25T00:56:37.100Z,7.00
2022-12-25T00:56:47.121Z,7.10
2022-12-25T00:56:57.102Z,7.50
2022-12-25T00:57:07.116Z,7.00
2022-12-25T00:57:17.214Z,7.60
2022-12-25T00:57:27.096Z,7.50
2022-12-25T00:57:37.096Z,6.80
2022-12-25T00:57:47.100Z,5.50
2022-12-25T00:57:57.111Z,4.40
2022-12-25T00:58:07.105Z,4.90
2022-12-25T00:58:17.112Z,4.90
2022-12-25T00:58:27.114Z,4.80
2022-12-25T00:58:37.846Z,4.60
2022-12-25T00:58:47.108Z,5.40
2022-12-25T00:58:57.144Z,7.00
2022-12-25T00:59:07.101Z,7.50
2022-12-25T00:59:17.166Z,7.00
2022-12-25T00:59:27.099Z,6.20
2022-12-25T00:59:37.092Z,6.20
2022-12-25T00:59:47.156Z,6.30
2022-12-25T00:59:57.374Z,7.10
2022-12-25T01:00:07.090Z,6.70
2022-12-25T01:00:17.085Z,7.70
2022-12-25T01:00:27.116Z,7.80
2022-12-25T01:00:37.159Z,8.30
2022-12-25T01:00:47.141Z,8.40
2022-12-25T01:00:57.286Z,7.20
2022-12-25T01:01:07.801Z,7.40
2022-12-25T01:01:17.248Z,6.60
2022-12-25T01:01:27.289Z,6.40
2022-12-25T01:01:37.175Z,6.70
2022-12-25T01:01:47.320Z,6.40
2022-12-25T01:01:57.210Z,6.70
2022-12-25T01:02:07.206Z,7.00
2022-12-25T01:02:17.226Z,7.00
2022-12-25T01:02:27.278Z,6.90
2022-12-25T01:02:37.307Z,6.80
2022-12-25T01:02:47.899Z,7.20
2022-12-25T01:02:57.285Z,7.40
2022-12-25T01:03:07.094Z,7.00
2022-12-25T01:03:17.196Z,7.10
2022-12-25T01:03:27.217Z,7.10
2022-12-25T01:03:37.111Z,7.30
2022-12-25T01:03:47.068Z,7.10
2022-12-25T01:03:57.072Z,7.10
2022-12-25T01:04:07.075Z,6.20
2022-12-25T01:04:17.144Z,6.00
2022-12-25T01:04:27.069Z,4.90
2022-12-25T01:04:37.075Z,4.90
2022-12-25T01:04:47.061Z,4.70
2022-12-25T01:04:57.151Z,4.90
2022-12-25T01:05:07.282Z,5.00
2022-12-25T01:05:17.070Z,4.70
2022-12-25T01:05:27.080Z,4.50
2022-12-25T01:05:37.735Z,5.10
2022-12-25T01:05:47.063Z,5.90
2022-12-25T01:05:57.061Z,6.70
2022-12-25T01:06:07.071Z,7.20
2022-12-25T01:06:17.119Z,7.10
2022-12-25T01:06:27.061Z,7.10
2022-12-25T01:06:37.805Z,6.50
2022-12-25T01:06:47.057Z,6.50
2022-12-25T01:06:57.105Z,6.80
2022-12-25T01:07:07.058Z,6.90
2022-12-25T01:07:17.757Z,6.90
2022-12-25T01:07:27.065Z,6.30
2022-12-25T01:07:37.162Z,5.80
2022-12-25T01:07:47.067Z,6.80
2022-12-25T01:07:57.052Z,7.20
2022-12-25T01:08:07.055Z,8.40
2022-12-25T01:08:17.060Z,8.00
2022-12-25T01:08:27.173Z,8.00
2022-12-25T01:08:37.082Z,7.60
2022-12-25T01:08:47.069Z,7.40
2022-12-25T01:08:57.044Z,7.00
2022-12-25T01:09:07.056Z,6.60
2022-12-25T01:09:17.047Z,6.00
2022-12-25T01:09:27.041Z,6.10
2022-12-25T01:09:37.052Z,6.20
2022-12-25T01:09:47.730Z,6.40
2022-12-25T01:09:57.064Z,6.30
2022-12-25T01:10:07.066Z,5.50
2022-12-25T01:10:17.122Z,4.80
2022-12-25T01:10:27.052Z,4.40
2022-12-25T01:10:37.035Z,4.50
2022-12-25T01:10:47.055Z,4.90
2022-12-25T01:10:57.059Z,5.10
2022-12-25T01:11:07.049Z,5.50
2022-12-25T01:11:17.133Z,5.70
2022-12-25T01:11:27.035Z,6.40
2022-12-25T01:11:37.039Z,6.50
2022-12-25T01:11:47.761Z,6.40
2022-12-25T01:11:57.052Z,6.00
2022-12-25T01:12:07.039Z,6.00
2022-12-25T01:12:17.042Z,6.60
2022-12-25T01:12:27.047Z,6.60
2022-12-25T01:12:37.747Z,6.80
2022-12-25T01:12:47.030Z,6.50
2022-12-25T01:12:57.046Z,8.00
2022-12-25T01:13:07.042Z,7.70
2022-12-25T01:13:17.036Z,7.90
2022-12-25T01:13:27.036Z,7.20
2022-12-25T01:13:37.081Z,7.80
2022-12-25T01:13:47.044Z,7.60
2022-12-25T01:13:57.732Z,7.30
2022-12-25T01:14:07.035Z,6.60
2022-12-25T01:14:17.018Z,6.80
2022-12-25T01:14:27.737Z,6.40
2022-12-25T01:14:37.054Z,6.90
2022-12-25T01:14:47.018Z,7.40
2022-12-25T01:14:57.053Z,7.40
2022-12-25T01:15:07.155Z,7.60
2022-12-25T01:15:17.023Z,7.00
2022-12-25T01:15:27.315Z,7.50
2022-12-25T01:15:37.057Z,7.30
2022-12-25T01:15:47.031Z,7.30
2022-12-25T01:15:57.075Z,7.00
2022-12-25T01:16:07.096Z,7.40
2022-12-25T01:16:17.849Z,7.30
2022-12-25T01:16:27.126Z,6.60
2022-12-25T01:16:37.790Z,5.40
2022-12-25T01:16:47.794Z,5.10
2022-12-25T01:16:57.151Z,5.10
2022-12-25T01:17:07.029Z,5.00
2022-12-25T01:17:17.042Z,4.40
2022-12-25T01:17:27.018Z,4.70
2022-12-25T01:17:37.024Z,4.90
2022-12-25T01:17:47.006Z,5.40
2022-12-25T01:17:57.032Z,6.00
2022-12-25T01:18:08.721Z,6.30
2022-12-25T01:18:17.044Z,6.70
2022-12-25T01:18:27.074Z,6.60
2022-12-25T01:18:37.014Z,7.30
2022-12-25T01:18:47.013Z,7.50
2022-12-25T01:18:57.739Z,7.00
2022-12-25T01:19:07.482Z,6.60
2022-12-25T01:19:17.006Z,6.60
2022-12-25T01:19:27.022Z,6.90
2022-12-25T01:19:37.078Z,7.10
2022-12-25T01:19:47.002Z,7.40
2022-12-25T01:19:57.103Z,7.30
2022-12-25T01:20:06.996Z,7.00
2022-12-25T01:20:17.757Z,6.30
2022-12-25T01:20:27.010Z,6.50
2022-12-25T01:20:37.068Z,6.10
2022-12-25T01:20:47.007Z,6.40
2022-12-25T01:20:57.755Z,6.30
2022-12-25T01:21:07.009Z,6.30
2022-12-25T01:21:16.996Z,6.30
2022-12-25T01:21:27.016Z,6.40
2022-12-25T01:21:36.997Z,6.90
2022-12-25T01:21:46.988Z,6.60
2022-12-25T01:21:57.000Z,6.80
2022-12-25T01:22:07.003Z,6.80
2022-12-25T01:22:17.092Z,7.30
2022-12-25T01:22:27.021Z,7.00
2022-12-25T01:22:36.999Z,7.10
2022-12-25T01:22:47.002Z,7.60
2022-12-25T01:22:57.006Z,7.90
2022-12-25T01:23:06.997Z,7.20
2022-12-25T01:23:16.998Z,5.60
2022-12-25T01:23:27.001Z,4.90
2022-12-25T01:23:36.986Z,5.10
2022-12-25T01:23:47.759Z,5.20
2022-12-25T01:23:56.985Z,5.10
2022-12-25T01:24:06.983Z,5.20
2022-12-25T01:24:16.983Z,5.50
2022-12-25T01:24:26.984Z,6.20
2022-12-25T01:24:37.009Z,6.60
2022-12-25T01:24:46.988Z,7.30
2022-12-25T01:24:57.015Z,7.50
2022-12-25T01:25:07.744Z,7.20
2022-12-25T01:25:16.989Z,6.60
2022-12-25T01:25:26.975Z,6.60
2022-12-25T01:25:37.024Z,6.60
2022-12-25T01:25:47.023Z,7.20
2022-12-25T01:25:56.982Z,6.80
2022-12-25T01:26:06.995Z,6.50
2022-12-25T01:26:16.970Z,6.00
2022-12-25T01:26:26.979Z,6.30
2022-12-25T01:26:37.096Z,7.00
2022-12-25T01:26:46.968Z,7.30
2022-12-25T01:26:56.964Z,7.00
2022-12-25T01:27:07.077Z,6.60
2022-12-25T01:27:16.968Z,6.70
2022-12-25T01:27:26.998Z,7.00
2022-12-25T01:27:36.976Z,7.70
2022-12-25T01:27:46.970Z,7.20
2022-12-25T01:27:57.748Z,7.10
2022-12-25T01:28:06.965Z,6.40
2022-12-25T01:28:17.034Z,6.50
2022-12-25T01:28:26.972Z,5.80
2022-12-25T01:28:37.025Z,5.50
2022-12-25T01:28:46.963Z,5.40
2022-12-25T01:28:56.975Z,5.30
2022-12-25T01:29:06.957Z,4.80
2022-12-25T01:29:17.003Z,5.00
2022-12-25T01:29:26.959Z,4.70
2022-12-25T01:29:36.959Z,4.80
2022-12-25T01:29:46.990Z,4.80
2022-12-25T01:29:56.956Z,6.40
2022-12-25T01:30:06.953Z,7.20
2022-12-25T01:30:16.996Z,7.60
2022-12-25T01:30:26.961Z,6.60
2022-12-25T01:30:36.956Z,6.80
2022-12-25T01:30:47.043Z,6.50
2022-12-25T01:30:57.000Z,6.70
2022-12-25T01:31:06.965Z,6.30
2022-12-25T01:31:17.074Z,6.40
2022-12-25T01:31:27.052Z,6.50
2022-12-25T01:31:37.030Z,6.80
2022-12-25T01:31:46.999Z,6.80
2022-12-25T01:31:57.027Z,6.80
2022-12-25T01:32:07.054Z,6.60
2022-12-25T01:32:16.956Z,6.70
2022-12-25T01:32:26.946Z,7.10
2022-12-25T01:32:37.740Z,7.20
2022-12-25T01:32:46.954Z,8.40
2022-12-25T01:32:56.942Z,8.10
2022-12-25T01:33:06.964Z,8.10
2022-12-25T01:33:16.968Z,7.20
2022-12-25T01:33:26.947Z,6.90
2022-12-25T01:33:36.955Z,7.00
2022-12-25T01:33:46.939Z,6.90
2022-12-25T01:33:56.940Z,7.00
2022-12-25T01:34:07.015Z,6.80
2022-12-25T01:34:16.947Z,6.10
2022-12-25T01:34:26.943Z,5.80
2022-12-25T01:34:36.940Z,5.50
2022-12-25T01:34:51.977Z,5.80
2022-12-25T01:34:57.013Z,5.70
2022-12-25T01:35:07.741Z,6.50
2022-12-25T01:35:16.938Z,6.30
2022-12-25T01:35:26.943Z,6.70
2022-12-25T01:35:36.948Z,6.70
2022-12-25T01:35:46.943Z,8.20
2022-12-25T01:35:56.955Z,8.20
2022-12-25T01:36:06.992Z,9.50
2022-12-25T01:36:16.964Z,8.40
2022-12-25T01:36:26.931Z,9.10
2022-12-25T01:36:36.932Z,7.60
2022-12-25T01:36:46.927Z,8.00
2022-12-25T01:36:57.018Z,7.30
2022-12-25T01:37:06.929Z,7.80
2022-12-25T01:37:16.924Z,7.50
2022-12-25T01:37:26.927Z,7.40
2022-12-25T01:37:37.750Z,7.50
2022-12-25T01:37:46.996Z,7.90
2022-12-25T01:37:56.933Z,8.50
2022-12-25T01:38:06.943Z,8.30
2022-12-25T01:38:17.744Z,8.90
2022-12-25T01:38:26.939Z,9.40
2022-12-25T01:38:36.917Z,8.60
2022-12-25T01:38:46.936Z,7.70
2022-12-25T01:38:56.914Z,6.30
2022-12-25T01:39:07.757Z,6.00
2022-12-25T01:39:16.930Z,5.90
2022-12-25T01:39:26.917Z,5.80
2022-12-25T01:39:36.947Z,6.50
2022-12-25T01:39:46.912Z,6.60
2022-12-25T01:39:56.933Z,6.70
2022-12-25T01:40:06.935Z,7.50
2022-12-25T01:40:16.919Z,7.60
2022-12-25T01:40:26.928Z,7.60
2022-12-25T01:40:36.955Z,7.60
2022-12-25T01:40:46.913Z,8.10
2022-12-25T01:40:56.922Z,8.50
2022-12-25T01:41:06.955Z,8.00
2022-12-25T01:41:17.335Z,7.60
2022-12-25T01:41:26.939Z,7.60
2022-12-25T01:41:36.997Z,7.60
2022-12-25T01:41:46.906Z,7.90
2022-12-25T01:41:56.977Z,7.40
2022-12-25T01:42:06.900Z,8.30
2022-12-25T01:42:16.899Z,8.50
2022-12-25T01:42:27.746Z,9.20
2022-12-25T01:42:36.944Z,8.10
2022-12-25T01:42:46.912Z,7.70
2022-12-25T01:42:56.904Z,8.00
2022-12-25T01:43:06.919Z,8.20
2022-12-25T01:43:18.749Z,8.10
2022-12-25T01:43:26.894Z,7.10
2022-12-25T01:43:36.914Z,6.20
2022-12-25T01:43:46.900Z,5.70
2022-12-25T01:43:56.928Z,5.80
2022-12-25T01:44:06.927Z,6.20
2022-12-25T01:44:16.909Z,6.60
2022-12-25T01:44:26.892Z,6.70
2022-12-25T01:44:36.985Z,6.40
2022-12-25T01:44:46.901Z,7.00
2022-12-25T01:44:56.971Z,7.80
2022-12-25T01:45:06.944Z,8.80
2022-12-25T01:45:16.894Z,9.40
2022-12-25T01:45:26.916Z,9.20
2022-12-25T01:45:37.018Z,9.60
2022-12-25T01:45:46.923Z,10.00
2022-12-25T01:45:56.918Z,10.30
2022-12-25T01:46:09.828Z,9.70
2022-12-25T01:46:16.991Z,8.80
2022-12-25T01:46:26.962Z,8.50
2022-12-25T01:46:36.891Z,8.40
2022-12-25T01:46:46.885Z,8.90
2022-12-25T01:46:56.882Z,9.20
2022-12-25T01:47:06.896Z,9.70
2022-12-25T01:47:16.881Z,9.80
2022-12-25T01:47:26.909Z,8.40
2022-12-25T01:47:36.893Z,7.30
2022-12-25T01:47:46.889Z,5.80
2022-12-25T01:47:56.896Z,6.40
2022-12-25T01:48:06.921Z,6.70
2022-12-25T01:48:16.887Z,7.40
2022-12-25T01:48:26.872Z,7.40
2022-12-25T01:48:36.901Z,7.10
2022-12-25T01:48:46.870Z,6.90
2022-12-25T01:48:56.950Z,7.10
2022-12-25T01:49:06.881Z,7.90
2022-12-25T01:49:16.875Z,8.00
2022-12-25T01:49:26.875Z,8.50
2022-12-25T01:49:36.935Z,8.60
2022-12-25T01:49:46.872Z,9.30
2022-12-25T01:49:56.877Z,9.10
2022-12-25T01:50:06.864Z,9.30
2022-12-25T01:50:17.774Z,8.60
2022-12-25T01:50:26.875Z,8.20
2022-12-25T01:50:36.882Z,7.40
2022-12-25T01:50:46.881Z,8.50
2022-12-25T01:50:56.897Z,9.40
2022-12-25T01:51:06.966Z,10.30
2022-12-25T01:51:16.864Z,9.40
2022-12-25T01:51:26.871Z,9.10
2022-12-25T01:51:36.950Z,7.80
2022-12-25T01:51:46.982Z,8.00
2022-12-25T01:51:56.884Z,7.20
2022-12-25T01:52:06.856Z,7.60
2022-12-25T01:52:21.742Z,6.80
2022-12-25T01:52:26.865Z,6.90
2022-12-25T01:52:36.857Z,6.80
2022-12-25T01:52:46.872Z,6.80
2022-12-25T01:52:56.936Z,6.80
2022-12-25T01:53:07.761Z,6.90
2022-12-25T01:53:16.872Z,7.80
2022-12-25T01:53:26.865Z,8.10
2022-12-25T01:53:36.860Z,8.40
2022-12-25T01:53:46.851Z,8.70
2022-12-25T01:53:56.857Z,8.50
2022-12-25T01:54:06.862Z,8.90
2022-12-25T01:54:16.864Z,8.20
2022-12-25T01:54:26.888Z,8.70
2022-12-25T01:54:36.870Z,8.00
2022-12-25T01:54:46.852Z,9.00
2022-12-25T01:54:56.854Z,8.90
2022-12-25T01:55:06.847Z,9.20
2022-12-25T01:55:16.850Z,8.30
2022-12-25T01:55:26.843Z,8.40
2022-12-25T01:55:36.850Z,8.00
2022-12-25T01:55:46.855Z,7.90
2022-12-25T01:55:56.909Z,7.00
2022-12-25T01:56:06.868Z,6.80
2022-12-25T01:56:16.840Z,6.50
2022-12-25T01:56:26.860Z,6.80
2022-12-25T01:56:36.861Z,6.80
2022-12-25T01:56:47.330Z,6.90
2022-12-25T01:56:56.847Z,7.80
2022-12-25T01:57:06.841Z,7.90
2022-12-25T01:57:17.750Z,8.30
2022-12-25T01:57:26.978Z,7.80
2022-12-25T01:57:36.847Z,8.10
2022-12-25T01:57:46.843Z,8.40
2022-12-25T01:57:56.836Z,8.30
2022-12-25T01:58:06.867Z,8.60
2022-12-25T01:58:16.830Z,8.40
2022-12-25T01:58:26.843Z,8.80
2022-12-25T01:58:36.843Z,9.00
2022-12-25T01:58:46.848Z,9.10
2022-12-25T01:58:56.836Z,8.90
2022-12-25T01:59:06.848Z,9.30
2022-12-25T01:59:16.828Z,9.20
2022-12-25T01:59:26.839Z,9.10
2022-12-25T01:59:36.994Z,8.40
2022-12-25T01:59:46.845Z,8.30
2022-12-25T01:59:56.924Z,7.40
2022-12-25T02:00:07.747Z,6.90
2022-12-25T02:00:16.843Z,6.50
2022-12-25T02:00:26.845Z,6.80
2022-12-25T02:00:36.879Z,7.30
2022-12-25T02:00:46.861Z,7.30
2022-12-25T02:00:56.900Z,7.90
2022-12-25T02:01:06.869Z,7.60
2022-12-25T02:01:17.004Z,7.70
2022-12-25T02:01:27.078Z,7.40
2022-12-25T02:01:36.919Z,8.20
2022-12-25T02:01:47.021Z,8.80
2022-12-25T02:01:57.152Z,8.80
2022-12-25T02:02:07.040Z,8.50
2022-12-25T02:02:16.934Z,8.60
2022-12-25T02:02:26.938Z,8.80
2022-12-25T02:02:37.827Z,9.60
2022-12-25T02:02:46.979Z,10.00
2022-12-25T02:02:57.003Z,10.20
2022-12-25T02:03:07.035Z,9.70
2022-12-25T02:03:16.922Z,9.00
2022-12-25T02:03:26.886Z,8.30
2022-12-25T02:03:37.784Z,8.00
2022-12-25T02:03:46.812Z,7.70
2022-12-25T02:03:56.807Z,7.60
2022-12-25T02:04:06.814Z,7.10
2022-12-25T02:04:17.755Z,6.90
2022-12-25T02:04:26.810Z,7.00
2022-12-25T02:04:36.811Z,7.40
2022-12-25T02:04:46.804Z,8.20
2022-12-25T02:04:56.826Z,8.40
2022-12-25T02:05:06.811Z,8.50
2022-12-25T02:05:16.822Z,8.00
2022-12-25T02:05:26.838Z,8.60
2022-12-25T02:05:36.813Z,8.80
2022-12-25T02:05:46.805Z,9.40
2022-12-25T02:05:56.813Z,9.80
2022-12-25T02:06:06.799Z,10.00
2022-12-25T02:06:16.803Z,10.00
2022-12-25T02:06:26.799Z,9.10
2022-12-25T02:06:36.867Z,8.90
2022-12-25T02:06:46.800Z,8.80
2022-12-25T02:06:56.800Z,8.90
2022-12-25T02:07:06.894Z,7.90
2022-12-25T02:07:16.824Z,7.10
2022-12-25T02:07:26.801Z,6.60
2022-12-25T02:07:36.798Z,7.60
2022-12-25T02:07:46.797Z,7.70
2022-12-25T02:07:56.923Z,7.70
2022-12-25T02:08:06.792Z,7.80
2022-12-25T02:08:16.802Z,7.40
2022-12-25T02:08:26.841Z,7.30
2022-12-25T02:08:37.774Z,6.70
2022-12-25T02:08:46.798Z,7.30
2022-12-25T02:08:56.798Z,7.80
2022-12-25T02:09:06.788Z,8.20
2022-12-25T02:09:16.812Z,8.20
2022-12-25T02:09:26.804Z,9.10
2022-12-25T02:09:36.791Z,9.00
2022-12-25T02:09:46.814Z,9.30
2022-12-25T02:09:56.802Z,9.40
2022-12-25T02:10:06.794Z,9.60
2022-12-25T02:10:16.823Z,9.50
2022-12-25T02:10:26.805Z,9.20
2022-12-25T02:10:36.792Z,9.00
2022-12-25T02:10:46.825Z,8.70
2022-12-25T02:10:56.786Z,7.50
2022-12-25T02:11:06.789Z,7.10
2022-12-25T02:11:17.828Z,6.40
2022-12-25T02:11:26.781Z,6.40
2022-12-25T02:11:36.784Z,6.70
2022-12-25T02:11:46.787Z,7.00
2022-12-25T02:11:56.796Z,7.30
2022-12-25T02:12:06.780Z,7.00
2022-12-25T02:12:16.927Z,7.10
2022-12-25T02:12:26.802Z,7.60
2022-12-25T02:12:36.813Z,8.00
2022-12-25T02:12:46.768Z,8.70
2022-12-25T02:12:57.793Z,8.70
2022-12-25T02:13:06.792Z,9.90